sensor_id;sensor_type;location;lat;lon;timestamp;temperature;humidity
4548;DHT22;2286;51.570;7.090;2023-02-28T00:02:26;-0.50;99.90
4548;DHT22;2286;51.570;7.090;2023-02-28T00:04:53;-0.50;99.90
4548;DHT22;2286;51.570;7.090;2023-02-28T00:07:26;-0.60;99.90
4548;DHT22;2286;51.570;7.090;2023-02-28T00:09:54;-0.60;99.90
4548;DHT22;2286;51.570;7.090;2023-02-28T00:12:22;-0.60;99.90
4548;DHT22;2286;51.570;7.090;2023-02-28T00:14:49;-0.70;99.90
4548;DHT22;2286;51.570;7.090;2023-02-28T00:17:16;-0.60;99.90
4548;DHT22;2286;51.570;7.090;2023-02-28T00:19:47;-0.70;99.90
4548;DHT22;2286;51.570;7.090;2023-02-28T00:22:14;-0.70;99.90
4548;DHT22;2286;51.570;7.090;2023-02-28T00:24:41;-0.60;99.90
4548;DHT22;2286;51.570;7.090;2023-02-28T00:27:09;-0.70;99.90
4548;DHT22;2286;51.570;7.090;2023-02-28T00:29:37;-0.60;99.90
4548;DHT22;2286;51.570;7.090;2023-02-28T00:32:05;-0.60;99.90
4548;DHT22;2286;51.570;7.090;2023-02-28T00:34:32;-0.70;99.90
4548;DHT22;2286;51.570;7.090;2023-02-28T00:37:04;-0.60;99.90
4548;DHT22;2286;51.570;7.090;2023-02-28T00:39:32;-0.70;99.90
4548;DHT22;2286;51.570;7.090;2023-02-28T00:42:00;-0.80;99.90
4548;DHT22;2286;51.570;7.090;2023-02-28T00:44:28;-0.80;99.90
4548;DHT22;2286;51.570;7.090;2023-02-28T00:46:56;-0.90;99.90
4548;DHT22;2286;51.570;7.090;2023-02-28T00:49:24;-0.90;99.90
4548;DHT22;2286;51.570;7.090;2023-02-28T00:51:52;-0.90;99.90
4548;DHT22;2286;51.570;7.090;2023-02-28T00:54:19;-0.90;99.90
4548;DHT22;2286;51.570;7.090;2023-02-28T00:56:46;-0.90;99.90
4548;DHT22;2286;51.570;7.090;2023-02-28T00:59:15;-0.90;99.90
4548;DHT22;2286;51.570;7.090;2023-02-28T01:01:43;-0.90;99.90
4548;DHT22;2286;51.570;7.090;2023-02-28T01:04:12;-0.90;99.90
4548;DHT22;2286;51.570;7.090;2023-02-28T01:06:39;-0.90;99.90
4548;DHT22;2286;51.570;7.090;2023-02-28T01:09:07;-0.90;99.90
4548;DHT22;2286;51.570;7.090;2023-02-28T01:11:34;-0.90;99.90
4548;DHT22;2286;51.570;7.090;2023-02-28T01:14:01;-0.90;99.90
4548;DHT22;2286;51.570;7.090;2023-02-28T01:16:29;-1.00;99.90
4548;DHT22;2286;51.570;7.090;2023-02-28T01:18:57;-1.10;99.90
4548;DHT22;2286;51.570;7.090;2023-02-28T01:21:25;-1.10;99.90
4548;DHT22;2286;51.570;7.090;2023-02-28T01:23:52;-1.20;99.90
4548;DHT22;2286;51.570;7.090;2023-02-28T01:26:22;-1.20;99.90
4548;DHT22;2286;51.570;7.090;2023-02-28T01:28:51;-1.20;99.90
4548;DHT22;2286;51.570;7.090;2023-02-28T01:31:18;-1.20;99.90
4548;DHT22;2286;51.570;7.090;2023-02-28T01:33:46;-1.20;99.90
4548;DHT22;2286;51.570;7.090;2023-02-28T01:36:15;-1.30;99.90
4548;DHT22;2286;51.570;7.090;2023-02-28T01:38:45;-1.40;99.90
4548;DHT22;2286;51.570;7.090;2023-02-28T01:41:16;-1.30;99.90
4548;DHT22;2286;51.570;7.090;2023-02-28T01:43:56;-1.40;99.90
4548;DHT22;2286;51.570;7.090;2023-02-28T01:46:23;-1.50;99.90
4548;DHT22;2286;51.570;7.090;2023-02-28T01:48:54;-1.60;99.90
4548;DHT22;2286;51.570;7.090;2023-02-28T01:51:24;-1.60;99.90
4548;DHT22;2286;51.570;7.090;2023-02-28T01:53:56;-1.70;99.90
4548;DHT22;2286;51.570;7.090;2023-02-28T01:56:27;-1.70;99.90
4548;DHT22;2286;51.570;7.090;2023-02-28T01:58:56;-1.80;1.00
4548;DHT22;2286;51.570;7.090;2023-02-28T02:01:25;-1.80;1.00
4548;DHT22;2286;51.570;7.090;2023-02-28T02:03:55;-1.80;1.00
4548;DHT22;2286;51.570;7.090;2023-02-28T02:06:23;-1.90;1.00
4548;DHT22;2286;51.570;7.090;2023-02-28T02:08:51;-2.00;1.00
4548;DHT22;2286;51.570;7.090;2023-02-28T02:11:22;-2.00;1.00
4548;DHT22;2286;51.570;7.090;2023-02-28T02:14:20;-2.00;1.00
4548;DHT22;2286;51.570;7.090;2023-02-28T02:17:09;-2.00;1.00
4548;DHT22;2286;51.570;7.090;2023-02-28T02:20:00;-2.10;1.00
4548;DHT22;2286;51.570;7.090;2023-02-28T02:23:02;-2.10;1.00
4548;DHT22;2286;51.570;7.090;2023-02-28T02:25:36;-2.20;1.00
4548;DHT22;2286;51.570;7.090;2023-02-28T02:28:20;-2.10;1.00
4548;DHT22;2286;51.570;7.090;2023-02-28T02:31:05;-2.20;1.00
4548;DHT22;2286;51.570;7.090;2023-02-28T02:34:06;-2.30;1.00
4548;DHT22;2286;51.570;7.090;2023-02-28T02:36:38;-2.30;1.00
4548;DHT22;2286;51.570;7.090;2023-02-28T02:39:13;-2.30;1.00
4548;DHT22;2286;51.570;7.090;2023-02-28T02:41:45;-2.30;1.00
4548;DHT22;2286;51.570;7.090;2023-02-28T02:44:18;-2.30;1.00
4548;DHT22;2286;51.570;7.090;2023-02-28T02:46:49;-2.30;1.00
4548;DHT22;2286;51.570;7.090;2023-02-28T02:49:21;-2.30;1.00
4548;DHT22;2286;51.570;7.090;2023-02-28T02:51:50;-2.30;1.00
4548;DHT22;2286;51.570;7.090;2023-02-28T02:54:20;-2.30;1.00
4548;DHT22;2286;51.570;7.090;2023-02-28T02:56:50;-2.40;1.00
4548;DHT22;2286;51.570;7.090;2023-02-28T02:59:20;-2.40;1.00
4548;DHT22;2286;51.570;7.090;2023-02-28T03:01:50;-2.40;1.00
4548;DHT22;2286;51.570;7.090;2023-02-28T03:04:22;-2.50;1.00
4548;DHT22;2286;51.570;7.090;2023-02-28T03:06:51;-2.60;1.00
4548;DHT22;2286;51.570;7.090;2023-02-28T03:09:20;-2.60;1.00
4548;DHT22;2286;51.570;7.090;2023-02-28T03:11:47;-2.60;8.50
4548;DHT22;2286;51.570;7.090;2023-02-28T03:14:25;-2.60;8.40
4548;DHT22;2286;51.570;7.090;2023-02-28T03:17:16;-2.70;18.00
4548;DHT22;2286;51.570;7.090;2023-02-28T03:19:55;-2.70;17.30
4548;DHT22;2286;51.570;7.090;2023-02-28T03:22:46;-2.60;38.90
4548;DHT22;2286;51.570;7.090;2023-02-28T03:25:21;-2.70;36.10
4548;DHT22;2286;51.570;7.090;2023-02-28T03:28:00;-2.70;23.90
4548;DHT22;2286;51.570;7.090;2023-02-28T03:30:34;-2.70;31.20
4548;DHT22;2286;51.570;7.090;2023-02-28T03:33:06;-2.60;27.60
4548;DHT22;2286;51.570;7.090;2023-02-28T03:35:39;-2.70;24.80
4548;DHT22;2286;51.570;7.090;2023-02-28T03:38:11;-2.70;1.00
4548;DHT22;2286;51.570;7.090;2023-02-28T03:40:44;-2.70;1.00
4548;DHT22;2286;51.570;7.090;2023-02-28T03:43:14;-2.70;1.00
4548;DHT22;2286;51.570;7.090;2023-02-28T03:45:45;-2.80;1.00
4548;DHT22;2286;51.570;7.090;2023-02-28T03:48:18;-2.80;1.00
4548;DHT22;2286;51.570;7.090;2023-02-28T03:50:50;-2.80;5.30
4548;DHT22;2286;51.570;7.090;2023-02-28T03:53:21;-2.80;9.10
4548;DHT22;2286;51.570;7.090;2023-02-28T03:55:52;-2.90;1.00
4548;DHT22;2286;51.570;7.090;2023-02-28T03:58:26;-2.90;1.00
4548;DHT22;2286;51.570;7.090;2023-02-28T04:00:59;-2.90;1.00
4548;DHT22;2286;51.570;7.090;2023-02-28T04:03:33;-3.00;1.00
4548;DHT22;2286;51.570;7.090;2023-02-28T04:06:02;-3.00;1.00
4548;DHT22;2286;51.570;7.090;2023-02-28T04:08:29;-3.00;1.00
4548;DHT22;2286;51.570;7.090;2023-02-28T04:11:00;-3.00;1.00
4548;DHT22;2286;51.570;7.090;2023-02-28T04:13:28;-3.00;1.00
4548;DHT22;2286;51.570;7.090;2023-02-28T04:15:55;-3.10;1.00
4548;DHT22;2286;51.570;7.090;2023-02-28T04:18:22;-3.10;1.00
4548;DHT22;2286;51.570;7.090;2023-02-28T04:20:49;-3.10;1.00
4548;DHT22;2286;51.570;7.090;2023-02-28T04:23:17;-3.10;1.00
4548;DHT22;2286;51.570;7.090;2023-02-28T04:25:44;-3.10;1.00
4548;DHT22;2286;51.570;7.090;2023-02-28T04:28:11;-3.20;1.00
4548;DHT22;2286;51.570;7.090;2023-02-28T04:30:38;-3.10;1.00
4548;DHT22;2286;51.570;7.090;2023-02-28T04:33:05;-3.20;1.00
4548;DHT22;2286;51.570;7.090;2023-02-28T04:35:33;-3.10;1.00
4548;DHT22;2286;51.570;7.090;2023-02-28T04:37:59;-3.10;1.00
4548;DHT22;2286;51.570;7.090;2023-02-28T04:40:28;-3.10;1.00
4548;DHT22;2286;51.570;7.090;2023-02-28T04:42:55;-3.10;1.00
4548;DHT22;2286;51.570;7.090;2023-02-28T04:45:22;-3.20;1.00
4548;DHT22;2286;51.570;7.090;2023-02-28T04:47:49;-3.20;1.00
4548;DHT22;2286;51.570;7.090;2023-02-28T04:50:16;-3.20;1.00
4548;DHT22;2286;51.570;7.090;2023-02-28T04:52:43;-3.20;1.00
4548;DHT22;2286;51.570;7.090;2023-02-28T04:55:10;-3.20;1.00
4548;DHT22;2286;51.570;7.090;2023-02-28T04:57:39;-3.20;1.00
4548;DHT22;2286;51.570;7.090;2023-02-28T05:00:09;-3.20;1.00
4548;DHT22;2286;51.570;7.090;2023-02-28T05:02:37;-3.20;1.00
4548;DHT22;2286;51.570;7.090;2023-02-28T05:05:05;-3.20;1.00
4548;DHT22;2286;51.570;7.090;2023-02-28T05:07:32;-3.20;1.00
4548;DHT22;2286;51.570;7.090;2023-02-28T05:09:59;-3.20;1.00
4548;DHT22;2286;51.570;7.090;2023-02-28T05:12:26;-3.20;1.00
4548;DHT22;2286;51.570;7.090;2023-02-28T05:14:54;-3.20;1.00
4548;DHT22;2286;51.570;7.090;2023-02-28T05:17:21;-3.20;1.00
4548;DHT22;2286;51.570;7.090;2023-02-28T05:19:48;-3.20;1.00
4548;DHT22;2286;51.570;7.090;2023-02-28T05:22:15;-3.20;1.00
4548;DHT22;2286;51.570;7.090;2023-02-28T05:24:43;-3.20;1.00
4548;DHT22;2286;51.570;7.090;2023-02-28T05:27:10;-3.30;1.00
4548;DHT22;2286;51.570;7.090;2023-02-28T05:29:37;-3.30;1.00
4548;DHT22;2286;51.570;7.090;2023-02-28T05:32:10;-3.30;1.00
4548;DHT22;2286;51.570;7.090;2023-02-28T05:34:38;-3.40;1.00
4548;DHT22;2286;51.570;7.090;2023-02-28T05:37:05;-3.40;1.00
4548;DHT22;2286;51.570;7.090;2023-02-28T05:39:32;-3.40;1.00
4548;DHT22;2286;51.570;7.090;2023-02-28T05:41:59;-3.40;1.00
4548;DHT22;2286;51.570;7.090;2023-02-28T05:44:26;-3.40;1.00
4548;DHT22;2286;51.570;7.090;2023-02-28T05:46:53;-3.40;1.00
4548;DHT22;2286;51.570;7.090;2023-02-28T05:49:22;-3.50;1.00
4548;DHT22;2286;51.570;7.090;2023-02-28T05:51:49;-3.50;1.00
4548;DHT22;2286;51.570;7.090;2023-02-28T05:54:15;-3.60;1.00
4548;DHT22;2286;51.570;7.090;2023-02-28T05:56:42;-3.60;1.00
4548;DHT22;2286;51.570;7.090;2023-02-28T05:59:11;-3.60;1.00
4548;DHT22;2286;51.570;7.090;2023-02-28T06:01:40;-3.50;1.00
4548;DHT22;2286;51.570;7.090;2023-02-28T06:04:08;-3.60;1.00
4548;DHT22;2286;51.570;7.090;2023-02-28T06:06:37;-3.60;1.00
4548;DHT22;2286;51.570;7.090;2023-02-28T06:09:05;-3.60;1.00
4548;DHT22;2286;51.570;7.090;2023-02-28T06:11:32;-3.60;1.00
4548;DHT22;2286;51.570;7.090;2023-02-28T06:14:00;-3.70;1.00
4548;DHT22;2286;51.570;7.090;2023-02-28T06:16:27;-3.70;1.00
4548;DHT22;2286;51.570;7.090;2023-02-28T06:18:56;-3.60;1.00
4548;DHT22;2286;51.570;7.090;2023-02-28T06:21:23;-3.70;1.00
4548;DHT22;2286;51.570;7.090;2023-02-28T06:23:52;-3.60;1.00
4548;DHT22;2286;51.570;7.090;2023-02-28T06:26:19;-3.60;1.00
4548;DHT22;2286;51.570;7.090;2023-02-28T06:28:46;-3.60;1.00
4548;DHT22;2286;51.570;7.090;2023-02-28T06:31:16;-3.60;1.00
4548;DHT22;2286;51.570;7.090;2023-02-28T06:33:45;-3.70;1.00
4548;DHT22;2286;51.570;7.090;2023-02-28T06:36:13;-3.70;1.00
4548;DHT22;2286;51.570;7.090;2023-02-28T06:38:40;-3.70;1.00
4548;DHT22;2286;51.570;7.090;2023-02-28T06:41:10;-3.70;1.00
4548;DHT22;2286;51.570;7.090;2023-02-28T06:43:39;-3.70;1.00
4548;DHT22;2286;51.570;7.090;2023-02-28T06:46:08;-3.70;1.00
4548;DHT22;2286;51.570;7.090;2023-02-28T06:48:35;-3.60;1.00
4548;DHT22;2286;51.570;7.090;2023-02-28T06:51:04;-3.60;1.00
4548;DHT22;2286;51.570;7.090;2023-02-28T06:53:31;-3.60;1.00
4548;DHT22;2286;51.570;7.090;2023-02-28T06:55:59;-3.60;1.00
4548;DHT22;2286;51.570;7.090;2023-02-28T06:58:27;-3.50;1.00
4548;DHT22;2286;51.570;7.090;2023-02-28T07:00:54;-3.50;1.00
4548;DHT22;2286;51.570;7.090;2023-02-28T07:03:21;-3.40;1.00
4548;DHT22;2286;51.570;7.090;2023-02-28T07:05:48;-3.50;1.00
4548;DHT22;2286;51.570;7.090;2023-02-28T07:08:16;-3.50;1.00
4548;DHT22;2286;51.570;7.090;2023-02-28T07:10:43;-3.40;1.00
4548;DHT22;2286;51.570;7.090;2023-02-28T07:13:11;-3.40;1.00
4548;DHT22;2286;51.570;7.090;2023-02-28T07:15:39;-3.30;1.00
4548;DHT22;2286;51.570;7.090;2023-02-28T07:18:06;-3.30;1.00
4548;DHT22;2286;51.570;7.090;2023-02-28T07:20:33;-3.30;1.00
4548;DHT22;2286;51.570;7.090;2023-02-28T07:23:00;-3.20;1.00
4548;DHT22;2286;51.570;7.090;2023-02-28T07:25:28;-3.10;1.00
4548;DHT22;2286;51.570;7.090;2023-02-28T07:27:55;-3.10;1.00
4548;DHT22;2286;51.570;7.090;2023-02-28T07:30:24;-3.00;1.00
4548;DHT22;2286;51.570;7.090;2023-02-28T07:32:52;-2.90;1.00
4548;DHT22;2286;51.570;7.090;2023-02-28T07:35:21;-2.90;1.00
4548;DHT22;2286;51.570;7.090;2023-02-28T07:37:49;-2.80;1.00
4548;DHT22;2286;51.570;7.090;2023-02-28T07:40:16;-2.70;1.00
4548;DHT22;2286;51.570;7.090;2023-02-28T07:42:43;-2.70;1.00
4548;DHT22;2286;51.570;7.090;2023-02-28T07:45:11;-2.50;1.00
4548;DHT22;2286;51.570;7.090;2023-02-28T07:47:38;-2.50;1.00
4548;DHT22;2286;51.570;7.090;2023-02-28T07:50:08;-2.40;1.00
4548;DHT22;2286;51.570;7.090;2023-02-28T07:52:36;-2.40;1.00
4548;DHT22;2286;51.570;7.090;2023-02-28T07:55:04;-2.40;1.00
4548;DHT22;2286;51.570;7.090;2023-02-28T07:57:32;-2.30;1.00
4548;DHT22;2286;51.570;7.090;2023-02-28T07:59:59;-2.10;1.00
4548;DHT22;2286;51.570;7.090;2023-02-28T08:02:26;-2.10;1.00
4548;DHT22;2286;51.570;7.090;2023-02-28T08:04:53;-2.00;1.00
4548;DHT22;2286;51.570;7.090;2023-02-28T08:07:21;-2.00;1.00
4548;DHT22;2286;51.570;7.090;2023-02-28T08:09:48;-1.80;1.00
4548;DHT22;2286;51.570;7.090;2023-02-28T08:12:15;-1.80;1.00
4548;DHT22;2286;51.570;7.090;2023-02-28T08:14:42;-1.70;1.00
4548;DHT22;2286;51.570;7.090;2023-02-28T08:17:10;-1.60;99.90
4548;DHT22;2286;51.570;7.090;2023-02-28T08:19:37;-1.60;99.90
4548;DHT22;2286;51.570;7.090;2023-02-28T08:22:05;-1.40;99.90
4548;DHT22;2286;51.570;7.090;2023-02-28T08:24:33;-1.30;99.90
4548;DHT22;2286;51.570;7.090;2023-02-28T08:27:00;-1.20;99.90
4548;DHT22;2286;51.570;7.090;2023-02-28T08:29:27;-1.10;99.90
4548;DHT22;2286;51.570;7.090;2023-02-28T08:31:55;-0.90;99.90
4548;DHT22;2286;51.570;7.090;2023-02-28T08:34:24;-0.80;99.90
4548;DHT22;2286;51.570;7.090;2023-02-28T08:36:51;-0.60;99.90
4548;DHT22;2286;51.570;7.090;2023-02-28T08:39:18;-0.50;99.90
4548;DHT22;2286;51.570;7.090;2023-02-28T08:41:46;-0.30;99.90
4548;DHT22;2286;51.570;7.090;2023-02-28T08:44:13;-0.20;99.90
4548;DHT22;2286;51.570;7.090;2023-02-28T08:46:40;0.10;99.90
4548;DHT22;2286;51.570;7.090;2023-02-28T08:49:09;0.30;99.90
4548;DHT22;2286;51.570;7.090;2023-02-28T08:51:38;0.40;99.90
4548;DHT22;2286;51.570;7.090;2023-02-28T08:54:05;0.50;99.90
4548;DHT22;2286;51.570;7.090;2023-02-28T08:56:32;0.70;99.90
4548;DHT22;2286;51.570;7.090;2023-02-28T08:59:01;0.80;99.90
4548;DHT22;2286;51.570;7.090;2023-02-28T09:01:28;1.00;99.90
4548;DHT22;2286;51.570;7.090;2023-02-28T09:03:56;1.10;99.90
4548;DHT22;2286;51.570;7.090;2023-02-28T09:06:25;1.30;99.90
4548;DHT22;2286;51.570;7.090;2023-02-28T09:08:52;1.40;99.90
4548;DHT22;2286;51.570;7.090;2023-02-28T09:11:19;1.60;99.90
4548;DHT22;2286;51.570;7.090;2023-02-28T09:13:46;1.80;99.90
4548;DHT22;2286;51.570;7.090;2023-02-28T09:16:15;2.00;99.90
4548;DHT22;2286;51.570;7.090;2023-02-28T09:18:43;2.10;99.90
4548;DHT22;2286;51.570;7.090;2023-02-28T09:21:12;2.30;99.90
4548;DHT22;2286;51.570;7.090;2023-02-28T09:23:40;2.50;99.90
4548;DHT22;2286;51.570;7.090;2023-02-28T09:26:07;2.80;99.90
4548;DHT22;2286;51.570;7.090;2023-02-28T09:28:34;3.00;99.90
4548;DHT22;2286;51.570;7.090;2023-02-28T09:31:01;3.20;99.90
4548;DHT22;2286;51.570;7.090;2023-02-28T09:33:31;3.40;99.90
4548;DHT22;2286;51.570;7.090;2023-02-28T09:36:01;3.50;99.90
4548;DHT22;2286;51.570;7.090;2023-02-28T09:38:29;3.70;99.90
4548;DHT22;2286;51.570;7.090;2023-02-28T09:40:57;3.80;99.90
4548;DHT22;2286;51.570;7.090;2023-02-28T09:43:28;4.00;99.90
4548;DHT22;2286;51.570;7.090;2023-02-28T09:46:01;4.30;99.90
4548;DHT22;2286;51.570;7.090;2023-02-28T09:48:35;4.50;99.90
4548;DHT22;2286;51.570;7.090;2023-02-28T09:51:05;4.70;99.90
4548;DHT22;2286;51.570;7.090;2023-02-28T09:53:37;5.10;99.90
4548;DHT22;2286;51.570;7.090;2023-02-28T09:56:08;5.70;99.90
4548;DHT22;2286;51.570;7.090;2023-02-28T09:58:41;6.30;99.90
4548;DHT22;2286;51.570;7.090;2023-02-28T10:01:17;7.00;99.90
4548;DHT22;2286;51.570;7.090;2023-02-28T10:03:50;7.80;99.90
4548;DHT22;2286;51.570;7.090;2023-02-28T10:06:25;8.70;99.90
4548;DHT22;2286;51.570;7.090;2023-02-28T10:08:58;9.10;99.90
4548;DHT22;2286;51.570;7.090;2023-02-28T10:11:27;9.40;99.90
4548;DHT22;2286;51.570;7.090;2023-02-28T10:13:58;9.50;99.90
4548;DHT22;2286;51.570;7.090;2023-02-28T10:16:32;9.80;99.90
4548;DHT22;2286;51.570;7.090;2023-02-28T10:19:04;10.20;99.90
4548;DHT22;2286;51.570;7.090;2023-02-28T10:21:36;10.40;99.90
4548;DHT22;2286;51.570;7.090;2023-02-28T10:24:14;10.30;99.90
4548;DHT22;2286;51.570;7.090;2023-02-28T10:26:44;9.60;99.90
4548;DHT22;2286;51.570;7.090;2023-02-28T10:29:12;8.90;99.90
4548;DHT22;2286;51.570;7.090;2023-02-28T10:31:40;8.70;99.90
4548;DHT22;2286;51.570;7.090;2023-02-28T10:34:12;7.90;99.90
4548;DHT22;2286;51.570;7.090;2023-02-28T10:36:39;7.10;99.90
4548;DHT22;2286;51.570;7.090;2023-02-28T10:39:36;7.10;99.90
4548;DHT22;2286;51.570;7.090;2023-02-28T10:42:04;8.10;99.90
4548;DHT22;2286;51.570;7.090;2023-02-28T10:44:32;8.80;99.90
4548;DHT22;2286;51.570;7.090;2023-02-28T10:46:59;8.80;99.90
4548;DHT22;2286;51.570;7.090;2023-02-28T10:49:29;9.40;99.90
4548;DHT22;2286;51.570;7.090;2023-02-28T10:51:57;9.60;99.90
4548;DHT22;2286;51.570;7.090;2023-02-28T10:54:29;10.20;99.90
4548;DHT22;2286;51.570;7.090;2023-02-28T10:57:07;11.00;99.90
4548;DHT22;2286;51.570;7.090;2023-02-28T10:59:35;12.10;99.90
4548;DHT22;2286;51.570;7.090;2023-02-28T11:02:33;12.00;99.90
4548;DHT22;2286;51.570;7.090;2023-02-28T11:05:02;12.70;99.90
4548;DHT22;2286;51.570;7.090;2023-02-28T11:07:29;13.80;99.90
4548;DHT22;2286;51.570;7.090;2023-02-28T11:09:57;13.90;99.90
4548;DHT22;2286;51.570;7.090;2023-02-28T11:12:26;13.70;99.90
4548;DHT22;2286;51.570;7.090;2023-02-28T11:14:58;13.80;99.90
4548;DHT22;2286;51.570;7.090;2023-02-28T11:17:28;13.90;99.90
4548;DHT22;2286;51.570;7.090;2023-02-28T11:19:58;13.90;99.90
4548;DHT22;2286;51.570;7.090;2023-02-28T11:22:32;14.40;99.90
4548;DHT22;2286;51.570;7.090;2023-02-28T11:25:03;15.10;99.90
4548;DHT22;2286;51.570;7.090;2023-02-28T11:27:46;14.90;99.90
4548;DHT22;2286;51.570;7.090;2023-02-28T11:30:25;13.70;99.90
4548;DHT22;2286;51.570;7.090;2023-02-28T11:32:52;12.40;99.90
4548;DHT22;2286;51.570;7.090;2023-02-28T11:35:24;11.20;99.90
4548;DHT22;2286;51.570;7.090;2023-02-28T11:37:57;11.90;99.90
4548;DHT22;2286;51.570;7.090;2023-02-28T11:40:30;13.00;99.90
4548;DHT22;2286;51.570;7.090;2023-02-28T11:43:11;13.70;99.90
4548;DHT22;2286;51.570;7.090;2023-02-28T11:45:49;14.00;99.90
4548;DHT22;2286;51.570;7.090;2023-02-28T11:48:23;13.40;99.90
4548;DHT22;2286;51.570;7.090;2023-02-28T11:51:01;13.20;99.90
4548;DHT22;2286;51.570;7.090;2023-02-28T11:53:58;13.30;99.90
4548;DHT22;2286;51.570;7.090;2023-02-28T11:56:32;12.60;99.90
4548;DHT22;2286;51.570;7.090;2023-02-28T11:59:33;13.10;99.90
4548;DHT22;2286;51.570;7.090;2023-02-28T12:05:11;15.40;99.90
4548;DHT22;2286;51.570;7.090;2023-02-28T12:07:49;15.80;99.90
4548;DHT22;2286;51.570;7.090;2023-02-28T12:10:23;16.30;99.90
4548;DHT22;2286;51.570;7.090;2023-02-28T12:13:01;16.90;99.90
4548;DHT22;2286;51.570;7.090;2023-02-28T12:18:48;17.20;99.90
4548;DHT22;2286;51.570;7.090;2023-02-28T12:21:23;18.40;99.90
4548;DHT22;2286;51.570;7.090;2023-02-28T12:24:05;18.40;99.90
4548;DHT22;2286;51.570;7.090;2023-02-28T12:26:37;17.90;99.90
4548;DHT22;2286;51.570;7.090;2023-02-28T12:29:17;17.70;99.90
4548;DHT22;2286;51.570;7.090;2023-02-28T12:31:47;18.30;99.90
4548;DHT22;2286;51.570;7.090;2023-02-28T12:34:20;18.70;99.90
4548;DHT22;2286;51.570;7.090;2023-02-28T12:36:50;18.50;99.90
4548;DHT22;2286;51.570;7.090;2023-02-28T12:39:23;18.70;99.90
4548;DHT22;2286;51.570;7.090;2023-02-28T12:41:55;19.20;99.90
4548;DHT22;2286;51.570;7.090;2023-02-28T12:44:28;18.20;99.90
4548;DHT22;2286;51.570;7.090;2023-02-28T12:47:00;18.10;99.90
4548;DHT22;2286;51.570;7.090;2023-02-28T12:49:33;17.90;99.90
4548;DHT22;2286;51.570;7.090;2023-02-28T12:52:01;17.50;99.90
4548;DHT22;2286;51.570;7.090;2023-02-28T12:54:34;18.40;99.90
4548;DHT22;2286;51.570;7.090;2023-02-28T12:57:09;18.20;99.90
4548;DHT22;2286;51.570;7.090;2023-02-28T12:59:41;18.60;99.90
4548;DHT22;2286;51.570;7.090;2023-02-28T13:02:41;19.70;99.90
4548;DHT22;2286;51.570;7.090;2023-02-28T13:05:28;19.90;99.90
4548;DHT22;2286;51.570;7.090;2023-02-28T13:10:56;17.60;99.90
4548;DHT22;2286;51.570;7.090;2023-02-28T13:13:27;17.80;99.90
4548;DHT22;2286;51.570;7.090;2023-02-28T13:16:00;18.70;99.90
4548;DHT22;2286;51.570;7.090;2023-02-28T13:18:31;19.60;99.90
4548;DHT22;2286;51.570;7.090;2023-02-28T13:20:59;19.60;99.90
4548;DHT22;2286;51.570;7.090;2023-02-28T13:23:56;18.90;99.90
4548;DHT22;2286;51.570;7.090;2023-02-28T13:29:32;15.50;99.90
4548;DHT22;2286;51.570;7.090;2023-02-28T13:32:31;15.80;99.90
4548;DHT22;2286;51.570;7.090;2023-02-28T13:40:51;18.70;99.90
4548;DHT22;2286;51.570;7.090;2023-02-28T13:43:18;16.90;99.90
4548;DHT22;2286;51.570;7.090;2023-02-28T13:46:08;17.20;99.90
4548;DHT22;2286;51.570;7.090;2023-02-28T13:48:37;17.80;99.90
4548;DHT22;2286;51.570;7.090;2023-02-28T13:51:37;17.90;99.90
4548;DHT22;2286;51.570;7.090;2023-02-28T13:54:17;18.60;99.90
4548;DHT22;2286;51.570;7.090;2023-02-28T13:56:48;19.40;99.90
4548;DHT22;2286;51.570;7.090;2023-02-28T13:59:25;19.30;99.90
4548;DHT22;2286;51.570;7.090;2023-02-28T14:02:17;19.30;99.90
4548;DHT22;2286;51.570;7.090;2023-02-28T14:05:13;19.30;99.90
4548;DHT22;2286;51.570;7.090;2023-02-28T14:07:45;19.30;99.90
4548;DHT22;2286;51.570;7.090;2023-02-28T14:10:23;19.60;99.90
4548;DHT22;2286;51.570;7.090;2023-02-28T14:13:00;20.20;99.90
4548;DHT22;2286;51.570;7.090;2023-02-28T14:15:40;20.30;99.90
4548;DHT22;2286;51.570;7.090;2023-02-28T14:18:29;20.20;99.90
4548;DHT22;2286;51.570;7.090;2023-02-28T14:21:16;20.20;99.90
4548;DHT22;2286;51.570;7.090;2023-02-28T14:33:05;20.90;99.90
4548;DHT22;2286;51.570;7.090;2023-02-28T14:35:51;20.40;99.90
4548;DHT22;2286;51.570;7.090;2023-02-28T14:38:24;20.70;99.90
4548;DHT22;2286;51.570;7.090;2023-02-28T14:40:53;20.40;99.90
4548;DHT22;2286;51.570;7.090;2023-02-28T14:43:23;20.00;99.90
4548;DHT22;2286;51.570;7.090;2023-02-28T14:45:52;20.20;99.90
4548;DHT22;2286;51.570;7.090;2023-02-28T14:48:21;20.50;99.90
4548;DHT22;2286;51.570;7.090;2023-02-28T14:50:52;20.90;99.90
4548;DHT22;2286;51.570;7.090;2023-02-28T14:53:22;20.60;99.90
4548;DHT22;2286;51.570;7.090;2023-02-28T14:55:50;21.00;99.90
4548;DHT22;2286;51.570;7.090;2023-02-28T14:58:26;20.90;99.90
4548;DHT22;2286;51.570;7.090;2023-02-28T15:00:55;20.80;99.90
4548;DHT22;2286;51.570;7.090;2023-02-28T15:03:23;20.40;99.90
4548;DHT22;2286;51.570;7.090;2023-02-28T15:05:54;20.20;99.90
4548;DHT22;2286;51.570;7.090;2023-02-28T15:08:21;20.30;99.90
4548;DHT22;2286;51.570;7.090;2023-02-28T15:10:54;20.40;99.90
4548;DHT22;2286;51.570;7.090;2023-02-28T15:13:22;20.10;99.90
4548;DHT22;2286;51.570;7.090;2023-02-28T15:15:53;19.10;99.90
4548;DHT22;2286;51.570;7.090;2023-02-28T15:18:26;18.60;99.90
4548;DHT22;2286;51.570;7.090;2023-02-28T15:21:02;18.30;99.90
4548;DHT22;2286;51.570;7.090;2023-02-28T15:23:30;18.60;99.90
4548;DHT22;2286;51.570;7.090;2023-02-28T15:25:58;19.10;99.90
4548;DHT22;2286;51.570;7.090;2023-02-28T15:28:25;18.90;99.90
4548;DHT22;2286;51.570;7.090;2023-02-28T15:30:55;19.40;99.90
4548;DHT22;2286;51.570;7.090;2023-02-28T15:33:24;19.80;99.90
4548;DHT22;2286;51.570;7.090;2023-02-28T15:35:51;20.00;99.90
4548;DHT22;2286;51.570;7.090;2023-02-28T15:38:22;20.20;99.90
4548;DHT22;2286;51.570;7.090;2023-02-28T15:40:52;20.10;99.90
4548;DHT22;2286;51.570;7.090;2023-02-28T15:43:26;19.90;99.90
4548;DHT22;2286;51.570;7.090;2023-02-28T15:45:57;19.10;99.90
4548;DHT22;2286;51.570;7.090;2023-02-28T15:48:27;19.20;99.90
4548;DHT22;2286;51.570;7.090;2023-02-28T15:50:56;19.20;99.90
4548;DHT22;2286;51.570;7.090;2023-02-28T15:53:27;18.60;99.90
4548;DHT22;2286;51.570;7.090;2023-02-28T15:56:00;18.10;99.90
4548;DHT22;2286;51.570;7.090;2023-02-28T15:58:28;18.00;99.90
4548;DHT22;2286;51.570;7.090;2023-02-28T16:01:06;17.90;99.90
4548;DHT22;2286;51.570;7.090;2023-02-28T16:03:40;17.90;99.90
4548;DHT22;2286;51.570;7.090;2023-02-28T16:06:38;17.70;99.90
4548;DHT22;2286;51.570;7.090;2023-02-28T16:09:10;17.30;99.90
4548;DHT22;2286;51.570;7.090;2023-02-28T16:11:39;17.50;99.90
4548;DHT22;2286;51.570;7.090;2023-02-28T16:14:13;17.30;99.90
4548;DHT22;2286;51.570;7.090;2023-02-28T16:16:46;17.10;99.90
4548;DHT22;2286;51.570;7.090;2023-02-28T16:19:13;16.70;99.90
4548;DHT22;2286;51.570;7.090;2023-02-28T16:21:40;16.40;99.90
4548;DHT22;2286;51.570;7.090;2023-02-28T16:24:09;16.20;99.90
4548;DHT22;2286;51.570;7.090;2023-02-28T16:26:36;16.10;99.90
4548;DHT22;2286;51.570;7.090;2023-02-28T16:29:06;15.80;99.90
4548;DHT22;2286;51.570;7.090;2023-02-28T16:31:36;14.70;99.90
4548;DHT22;2286;51.570;7.090;2023-02-28T16:34:05;12.90;99.90
4548;DHT22;2286;51.570;7.090;2023-02-28T16:36:32;11.40;99.90
4548;DHT22;2286;51.570;7.090;2023-02-28T16:38:59;10.20;99.90
4548;DHT22;2286;51.570;7.090;2023-02-28T16:41:28;9.50;99.90
4548;DHT22;2286;51.570;7.090;2023-02-28T16:43:57;8.90;99.90
4548;DHT22;2286;51.570;7.090;2023-02-28T16:46:29;8.60;99.90
4548;DHT22;2286;51.570;7.090;2023-02-28T16:48:57;8.30;99.90
4548;DHT22;2286;51.570;7.090;2023-02-28T16:51:24;8.00;99.90
4548;DHT22;2286;51.570;7.090;2023-02-28T16:53:51;7.80;99.90
4548;DHT22;2286;51.570;7.090;2023-02-28T16:56:19;7.70;99.90
4548;DHT22;2286;51.570;7.090;2023-02-28T16:58:49;7.50;99.90
4548;DHT22;2286;51.570;7.090;2023-02-28T17:01:17;7.20;99.90
4548;DHT22;2286;51.570;7.090;2023-02-28T17:03:47;7.00;99.90